Latest Weather Observations for Victoria River Downs

IDD60801

Issued at 9:05 pm CST Tuesday 30 September 2014 (issued every 30 minutes, with the page automatically refreshed every 10 minutes)

About weather observations | Map of weather stations | Latest weather observations for NT | Other Formats
Station Details ID: 014825 Name: VICTORIA RIVER DOWNS Lat: -16.40 Lon: 131.01 Height: 88.5 m
Data from the previous 72 hours. | See also: Recent months at Victoria River Downs
Date/Time
CST
Temp
°C
App
Temp
°C
Dew
Point
Rel
Hum
%
Delta-T
°C
Wind Press
QNH
hPa
Press
MSL
hPa
Rain
since 9 am
mm
Dir
 
Spd
km/h
Gust
km/h
Spd
kts
Gust
kts
30/09:00pm 27.3 26.5 6.7 27 10.9 WNW 0 4 0 2 1011.3 1010.8 0.0
30/08:30pm 28.1 - 8.9 30 10.6 - - - - - 1011.0 - 0.0
30/08:00pm 28.7 - 7.3 26 11.5 - - - - - 1010.9 - 0.0
30/07:30pm 30.7 28.8 6.6 22 13.0 ENE 6 6 3 3 1010.6 - 0.0
30/07:00pm 32.8 30.9 6.9 20 14.2 ENE 6 7 3 4 1010.1 - 0.0
30/06:30pm 34.7 32.5 6.1 17 15.6 E 7 9 4 5 1009.7 - 0.0
30/06:00pm 36.4 33.9 4.6 14 17.1 NNE 7 13 4 7 1009.5 1008.9 0.0
30/05:30pm 36.8 33.6 4.9 14 17.3 E 11 24 6 13 1009.2 - 0.0
30/05:00pm 37.3 33.8 5.3 14 17.5 E 13 20 7 11 1009.0 - 0.0
30/04:30pm 37.2 35.0 5.3 14 17.4 SSE 6 9 3 5 1009.0 - 0.0
30/04:00pm 36.9 32.2 5.0 14 17.3 NE 19 22 10 12 1009.2 - 0.0
30/03:30pm 37.7 34.6 5.6 14 17.6 SE 11 19 6 10 1009.4 - 0.0
30/03:00pm 37.3 34.7 6.3 15 17.2 WSW 9 15 5 8 1009.6 1009.1 0.0
30/02:30pm 37.6 34.3 6.6 15 17.3 SE 13 24 7 13 1010.0 - 0.0
30/02:00pm 36.5 34.4 6.6 16 16.6 NNW 7 15 4 8 1010.4 - 0.0
30/01:30pm 35.6 33.1 8.4 19 15.4 WNW 11 17 6 9 1010.9 - 0.0
30/01:00pm 35.1 32.4 8.8 20 15.0 WNW 13 17 7 9 1011.6 - 0.0
30/12:30pm 35.0 33.2 10.8 23 14.2 WNW 11 20 6 11 1012.2 - 0.0
30/12:00pm 34.8 32.7 11.2 24 13.9 NW 13 24 7 13 1013.0 1012.4 0.0
30/11:30am 33.8 31.7 11.0 25 13.4 NNW 13 24 7 13 1013.4 - 0.0
30/11:00am 32.8 30.4 11.3 27 12.6 N 15 26 8 14 1013.9 - 0.0
30/10:30am 32.0 30.0 12.8 31 11.5 N 15 26 8 14 1014.3 - 0.0
30/10:00am 31.0 28.9 12.4 32 11.0 NNW 15 22 8 12 1014.6 - 0.0
30/09:30am 29.8 27.2 13.1 36 9.9 N 19 28 10 15 1014.7 - 0.0
30/09:00am 28.9 26.8 13.6 39 9.1 NNW 17 22 9 12 1014.6 1014.0 0.0
30/08:30am 28.4 27.8 13.5 40 8.9 N 9 17 5 9 1014.5 - 0.0
30/08:26am 28.1 27.9 13.6 41 8.6 N 7 11 4 6 1014.4 - 0.0
30/08:00am 26.1 26.6 13.9 47 7.2 ENE 4 7 2 4 1014.3 - 0.0
30/07:30am 23.2 23.6 13.7 55 5.6 NE 4 9 2 5 1013.9 - 0.0
30/07:00am 19.6 20.1 11.6 60 4.4 CALM 0 6 0 3 1013.5 - 0.0
30/06:30am 19.4 19.8 11.2 59 4.5 CALM 0 0 0 0 1013.0 - 0.0
30/06:00am 20.7 20.1 12.4 59 4.7 NE 7 9 4 5 1012.7 1012.1 0.0
30/05:30am 20.9 20.1 12.8 60 4.6 E 9 13 5 7 1012.2 - 0.0
30/05:00am 21.0 19.9 11.9 56 5.1 NE 9 13 5 7 1011.8 - 0.0
30/04:30am 21.0 20.7 11.3 54 5.4 SE 4 9 2 5 1011.6 - 0.0
30/04:00am 20.4 18.8 8.7 47 6.2 WNW 7 9 4 5 1010.9 - 0.0
30/03:30am 21.6 19.9 8.5 43 6.9 ENE 7 7 4 4 1010.9 - 0.0
30/03:00am 21.3 19.5 9.5 47 6.4 NE 9 9 5 5 1011.0 1010.5 0.0
30/02:30am 21.3 20.9 8.2 43 6.9 CALM 0 4 0 2 1011.0 - 0.0
30/02:00am 21.7 20.2 9.3 45 6.7 ENE 7 9 4 5 1011.1 - 0.0
30/01:30am 21.9 20.1 7.0 38 7.7 W 6 7 3 4 1010.9 - 0.0
30/01:00am 23.3 21.7 8.6 39 7.9 W 7 7 4 4 1011.0 - 0.0
30/12:30am 23.7 21.8 6.5 33 8.9 WNW 6 7 3 4 1011.2 - 0.0
30/12:00am 24.8 22.1 5.6 29 9.8 NW 9 11 5 6 1011.3 1010.8 0.0
 
Date/Time
CST
Temp
°C
App
Temp
°C
Dew
Point
Rel
Hum
%
Delta-T
°C
Wind Press
QNH
hPa
Press
MSL
hPa
Rain
since 9 am
mm
Dir
 
Spd
km/h
Gust
km/h
Spd
kts
Gust
kts
29/11:30pm 27.0 25.0 6.9 28 10.7 W 7 9 4 5 1011.4 - 0.0
29/11:00pm 23.6 20.2 4.0 28 9.7 WNW 11 15 6 8 1011.3 - 0.0
29/10:30pm 24.3 22.8 5.1 29 9.7 ENE 2 7 1 4 1011.0 - 0.0
29/10:00pm 25.3 24.5 6.5 30 9.8 CALM 0 0 0 0 1011.0 - 0.0
29/09:30pm 25.6 23.5 4.1 25 10.8 NE 4 7 2 4 1010.9 - 0.0
29/09:00pm 26.0 23.5 3.9 24 11.1 NE 6 7 3 4 1010.5 1010.0 0.0
29/08:30pm 26.9 24.4 4.0 23 11.5 ENE 6 7 3 4 1010.2 - 0.0
29/08:00pm 28.1 25.5 3.0 20 12.5 NE 6 7 3 4 1009.9 - 0.0
29/07:30pm 29.4 26.7 2.6 18 13.4 E 6 7 3 4 1009.5 - 0.0
29/07:00pm 31.3 29.9 3.4 17 14.3 CALM 0 0 0 0 1009.2 - 0.0
29/06:30pm 34.4 32.9 3.1 14 16.2 CALM 0 0 0 0 1008.8 - 0.0
29/06:00pm 36.2 34.4 1.1 11 17.9 CALM 0 0 0 0 1008.5 1008.0 0.0
29/05:30pm 37.3 33.9 1.9 11 18.3 NE 9 15 5 8 1008.3 - 0.0
29/05:00pm 37.4 34.4 2.0 11 18.4 E 7 9 4 5 1008.1 - 0.0
29/04:30pm 37.7 34.1 0.9 10 18.8 ESE 9 17 5 9 1008.1 - 0.0
29/04:00pm 37.6 33.3 0.8 10 18.8 N 13 19 7 10 1008.2 - 0.0
29/03:30pm 37.8 33.5 1.0 10 18.9 NE 13 17 7 9 1008.4 - 0.0
29/03:00pm 38.2 34.3 1.3 10 19.1 NNW 11 19 6 10 1008.7 1008.2 0.0
29/02:30pm 37.3 34.3 1.9 11 18.3 SSW 7 11 4 6 1008.9 - 0.0
29/02:00pm 37.0 32.4 1.7 11 18.2 NNW 15 24 8 13 1009.5 - 0.0
29/01:30pm 36.9 33.1 -1.1 9 18.7 N 9 15 5 8 1010.1 - 0.0
29/01:00pm 36.4 31.4 1.2 11 17.9 NE 17 22 9 12 1010.6 - 0.0
29/12:30pm 36.8 32.0 2.8 12 17.8 NNE 17 28 9 15 1011.2 - 0.0
29/12:00pm 35.4 29.9 1.7 12 17.2 NE 20 28 11 15 1011.9 1011.3 0.0
29/11:30am 35.0 30.2 2.5 13 16.8 NE 17 28 9 15 1012.4 - 0.0
29/11:00am 34.5 30.8 2.1 13 16.6 NE 11 19 6 10 1012.8 - 0.0
29/10:30am 32.1 28.0 2.2 15 15.1 NE 13 19 7 10 1013.1 - 0.0
29/10:00am 30.7 27.6 3.7 18 13.8 NE 9 17 5 9 1013.2 - 0.0
29/09:30am 29.1 25.3 3.9 20 12.8 NE 13 19 7 10 1013.4 - 0.0
29/09:00am 27.0 23.4 2.8 21 11.9 NE 11 17 6 9 1013.4 1012.8 0.0
29/08:30am 24.9 21.4 1.1 21 11.2 ENE 9 11 5 6 1013.2 - 0.0
29/08:10am 21.2 19.9 4.3 33 8.2 CALM 0 0 0 0 1013.1 - 0.0
29/08:00am 20.2 18.4 1.1 28 8.7 CALM 0 0 0 0 1013.0 - 0.0
29/07:30am 16.3 14.4 0.4 34 6.9 CALM 0 0 0 0 1012.9 - 0.0
29/07:00am 14.0 12.0 -0.1 38 5.9 CALM 0 0 0 0 1012.8 - 0.0
29/06:30am 13.6 11.7 0.3 40 5.6 CALM 0 0 0 0 1012.4 - 0.0
29/06:00am 14.5 12.5 0.0 37 6.1 CALM 0 0 0 0 1012.0 1011.4 0.0
29/05:30am 14.5 12.3 -1.2 34 6.5 CALM 0 0 0 0 1011.8 - 0.0
29/05:00am 14.9 12.7 -1.2 33 6.6 CALM 0 7 0 4 1011.2 - 0.0
29/04:30am 15.8 13.8 -0.4 33 6.9 CALM 0 2 0 1 1011.1 - 0.0
29/04:00am 15.7 12.4 -1.4 31 7.1 NNW 6 7 3 4 1010.9 - 0.0
29/03:30am 16.5 13.0 -1.1 30 7.4 W 7 11 4 6 1010.7 - 0.0
29/03:00am 16.7 13.4 -1.4 29 7.6 W 6 9 3 5 1010.8 1010.3 0.0
29/02:30am 18.0 14.4 -1.8 26 8.3 NW 7 7 4 4 1011.0 - 0.0
29/02:00am 19.1 15.6 -1.4 25 8.8 NW 7 9 4 5 1011.1 - 0.0
29/01:30am 18.1 14.6 -1.2 27 8.2 W 7 9 4 5 1011.3 - 0.0
29/01:00am 18.8 16.3 -1.1 26 8.5 N 2 6 1 3 1011.4 - 0.0
29/12:30am 19.7 16.4 -1.4 24 9.1 SSE 6 7 3 4 1011.7 - 0.0
29/12:00am 20.9 17.6 -1.0 23 9.6 ESE 6 9 3 5 1011.8 1011.2 0.0
 
Date/Time
CST
Temp
°C
App
Temp
°C
Dew
Point
Rel
Hum
%
Delta-T
°C
Wind Press
QNH
hPa
Press
MSL
hPa
Rain
since 9 am
mm
Dir
 
Spd
km/h
Gust
km/h
Spd
kts
Gust
kts
28/11:30pm 19.5 15.6 -1.6 24 9.0 S 9 13 5 7 1011.7 - 0.0
28/11:00pm 20.0 16.5 -1.2 24 9.2 SSE 7 11 4 6 1011.9 - 0.0
28/10:30pm 20.4 17.2 -0.3 25 9.2 S 6 7 3 4 1011.9 - 0.0
28/10:00pm 21.6 19.6 -0.4 23 9.8 CALM 0 0 0 0 1011.8 - 0.0
28/09:30pm 22.3 20.2 -1.1 21 10.4 CALM 0 0 0 0 1011.6 - 0.0
28/09:00pm 23.2 21.3 0.3 22 10.5 CALM 0 0 0 0 1011.3 1010.8 0.0
28/08:30pm 24.1 21.4 -2.4 17 11.6 SSW 2 6 1 3 1011.0 - 0.0
28/08:00pm 26.1 22.6 -2.5 15 12.7 S 6 7 3 4 1010.7 - 0.0
28/07:30pm 28.6 25.5 1.2 17 13.3 S 7 9 4 5 1010.3 - 0.0
28/07:00pm 31.1 27.6 -1.6 12 15.4 SSE 7 9 4 5 1009.9 - 0.0
28/06:30pm 33.5 29.9 -2.3 10 16.9 SSE 7 9 4 5 1009.8 - 0.0
28/06:00pm 35.5 31.5 -2.2 9 18.1 S 9 13 5 7 1009.6 1009.1 0.0
28/05:30pm 36.4 31.7 -1.5 9 18.5 S 13 19 7 10 1009.5 - 0.0
28/05:00pm 37.3 34.0 -0.9 9 18.9 W 6 11 3 6 1009.3 - 0.0
28/04:30pm 37.0 32.2 -2.7 8 19.1 NE 13 19 7 10 1009.2 - 0.0
28/04:00pm 37.2 33.7 -2.5 8 19.2 W 6 11 3 6 1009.4 - 0.0
28/03:30pm 37.2 33.2 -2.5 8 19.2 SSE 9 15 5 8 1009.7 - 0.0
28/03:00pm 37.2 33.9 -0.9 9 18.9 W 6 13 3 7 1010.1 1009.6 0.0
28/02:30pm 37.1 33.1 0.4 10 18.5 NNW 11 20 6 11 1010.5 - 0.0
28/02:00pm 36.5 32.6 -1.4 9 18.5 N 9 19 5 10 1011.1 - 0.0
28/01:30pm 36.0 32.6 -0.4 10 18.0 NNW 7 13 4 7 1011.8 - 0.0
28/01:00pm 36.3 32.0 1.2 11 17.9 E 13 24 7 13 1012.4 - 0.0
28/12:30pm 35.8 30.5 -0.5 10 17.9 E 17 26 9 14 1013.1 - 0.0
28/12:00pm 35.2 31.0 1.5 12 17.1 ENE 13 20 7 11 1013.9 1013.4 0.0
28/11:30am 33.7 29.5 1.5 13 16.2 ENE 13 24 7 13 1014.6 - 0.0
28/11:00am 32.7 28.4 0.7 13 15.8 NE 13 24 7 13 1015.1 - 0.0
28/10:30am 31.6 27.7 0.9 14 15.1 ENE 11 17 6 9 1015.5 - 0.0
28/10:00am 29.9 25.8 -0.5 14 14.4 ENE 11 13 6 7 1015.7 - 0.0
28/09:30am 28.5 25.7 -0.6 15 13.7 E 4 9 2 5 1015.8 - 0.0
28/09:25am 28.9 26.1 -0.3 15 13.8 ESE 4 7 2 4 1015.8 - 0.0
28/09:00am 26.8 23.8 -2.0 15 13.0 S 4 7 2 4 1015.8 1015.3 0.0
28/08:30am 23.9 21.3 0.9 22 10.7 SW 4 7 2 4 1015.9 - 0.0
28/08:14am 22.0 19.7 0.5 24 9.8 WSW 2 7 1 4 1015.9 - 0.0
28/08:00am 20.3 18.6 1.7 29 8.6 CALM 0 6 0 3 1015.7 - 0.0
28/07:30am 17.1 14.4 0.3 32 7.3 W 4 7 2 4 1015.4 - 0.0
28/07:00am 13.9 10.8 0.2 39 5.8 WNW 6 7 3 4 1015.1 - 0.0
28/06:30am 13.1 9.8 0.2 41 5.4 W 7 7 4 4 1014.8 - 0.0
28/06:00am 13.4 11.4 0.1 40 5.6 CALM 0 0 0 0 1014.5 1013.9 0.0
28/05:30am 13.7 11.9 1.4 43 5.3 CALM 0 0 0 0 1014.3 - 0.0
28/05:00am 14.2 12.2 -0.3 37 6.1 CALM 0 6 0 3 1014.1 - 0.0
28/04:30am 15.1 13.0 -0.6 34 6.6 CALM 0 4 0 2 1013.9 - 0.0
28/04:00am 16.3 12.9 -0.4 32 7.1 ENE 7 7 4 4 1013.9 - 0.0
28/03:30am 16.7 13.3 -0.9 30 7.4 WNW 7 9 4 5 1013.6 - 0.0
28/03:00am 16.8 13.5 -0.9 30 7.5 W 6 7 3 4 1013.5 1012.9 0.0
28/02:30am 17.4 14.1 0.1 31 7.5 W 7 7 4 4 1013.7 - 0.0
28/02:00am 17.5 14.0 -1.2 28 7.9 WNW 7 9 4 5 1013.9 - 0.0
28/01:30am 17.4 14.0 -0.8 29 7.8 WNW 7 9 4 5 1014.1 - 0.0
28/01:00am 18.2 15.4 -0.1 29 8.0 WNW 4 7 2 4 1014.3 - 0.0
28/12:30am 18.0 14.6 -0.8 28 8.1 NW 7 9 4 5 1014.4 - 0.0
28/12:00am 19.2 15.7 -1.3 25 8.8 W 7 9 4 5 1014.2 1013.6 0.0
 
Date/Time
CST
Temp
°C
App
Temp
°C
Dew
Point
Rel
Hum
%
Delta-T
°C
Wind Press
QNH
hPa
Press
MSL
hPa
Rain
since 9 am
mm
Dir
 
Spd
km/h
Gust
km/h
Spd
kts
Gust
kts
27/11:30pm 19.4 17.2 -1.7 24 9.0 CALM 0 0 0 0 1014.2 - 0.0
27/11:00pm 20.1 17.9 -1.7 23 9.4 CALM 0 0 0 0 1014.3 - 0.0
27/10:30pm 20.8 - -1.7 22 9.7 - - - - - 1014.2 - 0.0
27/10:00pm 22.8 - -0.6 21 10.5 - - - - - 1014.1 - 0.0
27/09:30pm 23.5 20.1 -2.2 18 11.3 S 6 7 3 4 1013.7 - 0.0
27/09:28pm 24.0 20.4 -3.3 16 11.8 S 6 7 3 4 1013.7 - 0.0

Other Formats:

Comma delimited format used in spreadsheet applications
http://www.bom.gov.au/fwo/IDD60801/IDD60801.94232.axf

JavaScript Object Notation format (JSON) in row-major order
http://www.bom.gov.au/fwo/IDD60801/IDD60801.94232.json